createdAt,value
2022-08-22T00:00:24.966Z,4.00
2022-08-22T00:05:52.737Z,4.00
2022-08-22T00:11:22.037Z,4.13
2022-08-22T00:17:00.723Z,4.38
2022-08-22T00:22:12.994Z,3.70
2022-08-22T00:27:20.684Z,4.03
2022-08-22T00:32:32.732Z,4.20
2022-08-22T00:37:40.329Z,3.85
2022-08-22T00:43:06.639Z,4.45
2022-08-22T00:48:22.377Z,4.15
2022-08-22T00:54:06.725Z,4.30
2022-08-22T00:59:33.351Z,4.20
2022-08-22T01:04:47.628Z,4.45
2022-08-22T01:10:31.398Z,4.50
2022-08-22T01:15:37.309Z,3.75
2022-08-22T01:21:10.686Z,4.75
2022-08-22T01:26:23.093Z,3.80
2022-08-22T01:32:07.099Z,4.28
2022-08-22T01:37:24.565Z,4.07
2022-08-22T01:43:04.327Z,3.97
2022-08-22T01:48:33.155Z,4.10
2022-08-22T01:53:50.548Z,4.10
2022-08-22T01:59:10.946Z,4.03
2022-08-22T02:04:43.881Z,3.88
2022-08-22T02:10:14.815Z,4.05
2022-08-22T02:15:38.437Z,4.55
2022-08-22T02:21:04.306Z,4.90
2022-08-22T02:26:13.963Z,4.30
2022-08-22T02:31:46.705Z,3.80
2022-08-22T02:37:16.879Z,4.15
2022-08-22T02:42:24.955Z,4.25
2022-08-22T02:47:35.877Z,4.35
2022-08-22T02:53:04.458Z,4.40
2022-08-22T02:58:20.051Z,4.53
2022-08-22T03:03:27.241Z,4.03
2022-08-22T03:08:36.119Z,4.10
2022-08-22T03:13:44.281Z,4.22
2022-08-22T03:19:18.900Z,4.65
2022-08-22T03:24:37.003Z,4.00
2022-08-22T03:29:50.443Z,4.00
2022-08-22T03:35:02.767Z,4.13
2022-08-22T03:40:32.372Z,3.97
2022-08-22T03:46:12.538Z,4.35
2022-08-22T03:51:41.278Z,3.95
2022-08-22T03:57:08.965Z,4.50
2022-08-22T04:02:53.356Z,4.82
2022-08-22T04:08:17.620Z,5.07
2022-08-22T04:13:48.052Z,4.93
2022-08-22T04:19:10.751Z,4.20
2022-08-22T04:25:11.577Z,4.15
2022-08-22T04:30:20.257Z,4.50
2022-08-22T04:35:36.730Z,4.78
2022-08-22T04:40:47.841Z,5.28
2022-08-22T04:45:55.468Z,6.45
2022-08-22T04:51:39.409Z,5.55
2022-08-22T04:56:57.032Z,4.50
2022-08-22T05:02:06.552Z,4.15
2022-08-22T05:07:25.688Z,5.75
2022-08-22T05:12:35.220Z,5.53
2022-08-22T05:17:39.135Z,5.38
2022-08-22T05:23:17.635Z,4.53
2022-08-22T05:28:48.281Z,5.43
2022-08-22T05:34:06.275Z,4.93
2022-08-22T05:39:13.358Z,6.10
2022-08-22T05:44:37.572Z,5.40
2022-08-22T05:50:02.832Z,5.88
2022-08-22T05:55:09.582Z,6.18
2022-08-22T06:00:17.054Z,5.93
2022-08-22T06:05:30.005Z,7.60
2022-08-22T06:10:42.251Z,6.68
2022-08-22T06:15:48.135Z,7.18
2022-08-22T06:20:58.339Z,8.73
2022-08-22T06:26:01.789Z,8.27
2022-08-22T06:31:06.242Z,8.33
2022-08-22T06:36:31.207Z,8.13
2022-08-22T06:41:39.226Z,8.35
2022-08-22T06:46:52.135Z,8.77
2022-08-22T06:52:09.429Z,8.48
2022-08-22T06:57:32.860Z,7.80
2022-08-22T07:02:43.344Z,9.05
2022-08-22T07:07:46.127Z,8.05
2022-08-22T07:12:53.726Z,8.25
2022-08-22T07:18:00.400Z,8.80
2022-08-22T07:23:12.522Z,8.18
2022-08-22T07:28:51.334Z,7.60
2022-08-22T07:34:32.252Z,7.55
2022-08-22T07:39:51.757Z,7.85
2022-08-22T07:45:17.155Z,6.97
2022-08-22T07:50:34.377Z,6.83
2022-08-22T07:55:48.480Z,7.38
2022-08-22T08:00:56.995Z,5.85
2022-08-22T08:06:00.701Z,6.22
2022-08-22T08:11:05.110Z,4.95
2022-08-22T08:16:12.521Z,4.93
2022-08-22T08:21:34.070Z,4.20
2022-08-22T08:27:01.211Z,4.25
2022-08-22T08:32:05.500Z,4.38
2022-08-22T08:37:34.841Z,3.97
2022-08-22T08:43:16.762Z,3.85
2022-08-22T08:49:09.932Z,4.18
2022-08-22T08:54:21.038Z,3.63
2022-08-22T08:59:34.482Z,4.00
2022-08-22T09:05:12.664Z,4.30
2022-08-22T09:10:31.676Z,4.10
2022-08-22T09:15:54.995Z,4.32
2022-08-22T09:21:31.231Z,4.50
2022-08-22T09:26:53.312Z,4.38
2022-08-22T09:32:30.862Z,3.80
2022-08-22T09:37:53.483Z,3.75
2022-08-22T09:43:23.613Z,3.97
2022-08-22T09:48:43.912Z,4.47
2022-08-22T09:54:02.329Z,3.63
2022-08-22T09:59:22.297Z,4.22
2022-08-22T10:04:45.155Z,4.50
2022-08-22T10:10:01.509Z,4.95
2022-08-22T10:15:31.572Z,4.57
2022-08-22T10:20:50.834Z,4.68
2022-08-22T10:26:22.945Z,4.10
2022-08-22T10:31:58.657Z,4.15
2022-08-22T10:37:30.700Z,4.00
2022-08-22T10:42:39.841Z,3.67
2022-08-22T10:47:53.326Z,3.50
2022-08-22T10:53:28.383Z,3.80
2022-08-22T10:58:36.867Z,3.75
2022-08-22T11:04:09.738Z,3.95
2022-08-22T11:09:40.294Z,3.75
2022-08-22T11:15:03.110Z,3.67
2022-08-22T11:20:44.901Z,4.28
2022-08-22T11:26:07.873Z,3.78
2022-08-22T11:31:25.474Z,3.85
2022-08-22T11:36:38.318Z,4.63
2022-08-22T11:42:31.498Z,4.25
2022-08-22T11:47:40.399Z,4.00
2022-08-22T11:53:04.571Z,4.05
2022-08-22T11:58:31.474Z,4.88
2022-08-22T12:03:45.987Z,4.03
2022-08-22T12:09:51.447Z,3.95
2022-08-22T12:15:21.191Z,3.83
2022-08-22T12:20:48.111Z,3.83
2022-08-22T12:26:16.790Z,3.70
2022-08-22T12:31:19.275Z,3.70
2022-08-22T12:36:53.759Z,3.38
2022-08-22T12:42:08.229Z,3.42
2022-08-22T12:47:47.641Z,3.78
2022-08-22T12:53:18.281Z,4.20
2022-08-22T12:58:54.726Z,3.10
2022-08-22T13:04:02.973Z,3.97
2022-08-22T13:09:16.301Z,3.33
2022-08-22T13:14:26.010Z,2.80
2022-08-22T13:19:34.865Z,4.07
2022-08-22T13:24:52.560Z,3.63
2022-08-22T13:30:12.576Z,3.67
2022-08-22T13:35:23.783Z,3.50
2022-08-22T13:45:32.216Z,3.67
2022-08-22T13:50:52.992Z,3.30
2022-08-22T13:56:05.285Z,3.60
2022-08-22T14:01:48.776Z,3.78
2022-08-22T14:07:06.326Z,4.18
2022-08-22T14:12:19.201Z,3.92
2022-08-22T14:17:25.543Z,3.60
2022-08-22T14:22:35.123Z,4.18
2022-08-22T14:28:09.081Z,3.63
2022-08-22T14:33:24.056Z,3.90
2022-08-22T14:38:33.176Z,3.90
2022-08-22T14:43:46.451Z,4.13
2022-08-22T14:49:06.761Z,4.40
2022-08-22T14:54:21.574Z,3.55
2022-08-22T14:59:43.570Z,4.10
2022-08-22T15:04:49.442Z,3.67
2022-08-22T15:10:11.992Z,3.85
2022-08-22T15:20:31.310Z,3.90
2022-08-22T15:25:41.027Z,3.70
2022-08-22T15:30:54.112Z,3.80
2022-08-22T15:36:15.829Z,3.70
2022-08-22T15:41:36.290Z,3.65
2022-08-22T15:46:55.917Z,3.57
2022-08-22T15:52:00.857Z,3.77
2022-08-22T15:57:18.502Z,3.53
2022-08-22T16:02:36.160Z,4.10
2022-08-22T16:07:58.131Z,3.53
2022-08-22T16:13:14.529Z,3.60
2022-08-22T16:18:39.396Z,3.80
2022-08-22T16:23:54.051Z,3.55
2022-08-22T16:29:00.020Z,3.88
2022-08-22T16:34:18.108Z,3.95
2022-08-22T16:39:21.258Z,4.10
2022-08-22T16:44:30.695Z,4.43
2022-08-22T16:49:35.878Z,4.07
2022-08-22T16:54:44.758Z,3.60
2022-08-22T16:59:57.078Z,4.10
2022-08-22T17:05:14.791Z,3.90
2022-08-22T17:10:52.899Z,3.67
2022-08-22T17:16:16.132Z,4.30
2022-08-22T17:21:51.787Z,3.88
2022-08-22T17:27:07.045Z,3.83
2022-08-22T17:32:37.674Z,4.20
2022-08-22T17:38:08.280Z,3.80
2022-08-22T17:43:16.489Z,4.32
2022-08-22T17:48:53.592Z,4.25
2022-08-22T17:54:01.777Z,3.30
2022-08-22T17:59:40.025Z,3.72
2022-08-22T18:05:00.696Z,3.67
2022-08-22T18:10:39.393Z,3.97
2022-08-22T18:16:10.810Z,3.53
2022-08-22T18:26:39.447Z,3.83
2022-08-22T18:31:53.958Z,4.05
2022-08-22T18:37:21.272Z,3.78
2022-08-22T18:42:49.137Z,4.00
2022-08-22T18:47:55.887Z,3.55
2022-08-22T18:52:59.434Z,3.65
2022-08-22T18:58:26.068Z,4.10
2022-08-22T19:03:31.708Z,3.97
2022-08-22T19:08:50.449Z,3.97
2022-08-22T19:14:22.459Z,3.83
2022-08-22T19:20:27.921Z,3.95
2022-08-22T19:25:30.888Z,4.03
2022-08-22T19:30:36.499Z,4.10
2022-08-22T19:35:57.859Z,4.60
2022-08-22T19:41:03.071Z,4.00
2022-08-22T19:46:11.462Z,4.00
2022-08-22T19:51:21.261Z,4.47
2022-08-22T19:56:48.157Z,4.03
2022-08-22T20:02:25.687Z,4.55
2022-08-22T20:08:02.009Z,4.68
2022-08-22T20:13:12.233Z,4.85
2022-08-22T20:19:05.934Z,5.00
2022-08-22T20:24:36.514Z,4.60
2022-08-22T20:30:05.022Z,4.60
2022-08-22T20:35:13.297Z,4.70
2022-08-22T20:40:55.324Z,4.63
2022-08-22T20:45:59.835Z,4.70
2022-08-22T20:51:05.050Z,5.13
2022-08-22T20:56:13.913Z,4.65
2022-08-22T21:01:16.676Z,4.50
2022-08-22T21:06:29.958Z,4.97
2022-08-22T21:11:41.213Z,4.90
2022-08-22T21:16:43.975Z,5.00
2022-08-22T21:21:49.025Z,5.35
2022-08-22T21:27:01.644Z,4.93
2022-08-22T21:32:23.272Z,4.97
2022-08-22T21:37:27.220Z,4.97
2022-08-22T21:42:35.201Z,5.43
2022-08-22T21:47:42.495Z,5.40
2022-08-22T21:53:10.370Z,5.78
2022-08-22T21:58:35.462Z,5.57
2022-08-22T22:03:38.334Z,5.55
2022-08-22T22:08:40.982Z,5.50
2022-08-22T22:13:44.451Z,5.47
2022-08-22T22:18:47.084Z,5.03
2022-08-22T22:23:50.733Z,5.80
2022-08-22T22:28:53.469Z,5.93
2022-08-22T22:33:56.056Z,5.07
2022-08-22T22:38:59.092Z,5.18
2022-08-22T22:44:01.691Z,6.00
2022-08-22T22:49:04.438Z,6.25
2022-08-22T22:54:07.018Z,6.03
2022-08-22T22:59:14.570Z,6.50
2022-08-22T23:04:17.495Z,5.43
2022-08-22T23:09:20.059Z,5.95
2022-08-22T23:14:23.077Z,5.72
2022-08-22T23:19:26.252Z,5.72
2022-08-22T23:24:31.162Z,5.82
2022-08-22T23:29:34.346Z,6.90
2022-08-22T23:34:45.794Z,6.00
2022-08-22T23:39:49.015Z,6.43
2022-08-22T23:44:51.981Z,6.57
2022-08-22T23:49:54.711Z,5.97
2022-08-22T23:54:57.268Z,6.60
2022-08-22T23:59:59.947Z,6.07
